Time;durP1;ratioP1;P1;durP2;ratioP2;P2;SDS_P1;SDS_P2;PMS_P1;PMS_P2;Temp;Humidity;BMP_temperature;BMP_pressure;BME280_temperature;BME280_humidity;BME280_pressure;Samples;Min_cycle;Max_cycle;Signal;HPM_P1;HPM_P2
2021/12/09 00:01:07;;;;;;;3.70;0.80;;;;;;;15.14;46.27;98470.97;4421485;32;20488;-72
2021/12/09 00:03:36;;;;;;;5.45;0.80;;;;;;;15.55;46.01;98464.03;4425715;32;20155;-72
2021/12/09 00:06:04;;;;;;;1.95;0.32;;;;;;;15.05;46.34;98468.47;4428030;32;20112;-73
2021/12/09 00:08:30;;;;;;;4.37;0.62;;;;;;;15.36;45.61;98471.63;4421107;32;20393;-72
2021/12/09 00:11:00;;;;;;;2.12;0.35;;;;;;;15.20;46.16;98471.72;4424264;32;20034;-72
2021/12/09 00:13:28;;;;;;;2.03;0.40;;;;;;;15.24;46.18;98478.66;4422784;32;20069;-71
2021/12/09 00:15:55;;;;;;;2.12;0.30;;;;;;;15.09;46.35;98466.88;4425163;32;20107;-71
2021/12/09 00:18:22;;;;;;;4.32;0.30;;;;;;;15.27;46.28;98476.81;4422548;32;20076;-72
2021/12/09 00:20:49;;;;;;;2.03;0.37;;;;;;;15.04;46.71;98481.09;4425141;32;20065;-71
2021/12/09 00:23:15;;;;;;;0.50;0.30;;;;;;;14.85;46.64;98477.34;4425675;32;20414;-71
2021/12/09 00:25:41;;;;;;;1.50;0.20;;;;;;;14.93;46.22;98487.56;4424583;32;20069;-72
2021/12/09 00:28:07;;;;;;;2.05;0.30;;;;;;;14.59;46.29;98486.19;4427453;32;20473;-72
2021/12/09 00:30:33;;;;;;;0.57;0.20;;;;;;;14.52;46.08;98488.78;4425355;32;20585;-72
2021/12/09 00:33:03;;;;;;;0.20;0.10;;;;;;;14.05;46.26;98484.97;4425801;32;20393;-72
2021/12/09 00:35:33;;;;;;;0.82;0.20;;;;;;;14.33;46.00;98480.06;4425165;32;20062;-72
2021/12/09 00:38:04;;;;;;;1.02;0.20;;;;;;;13.99;46.52;98481.38;4425458;32;20611;-72
2021/12/09 00:40:31;;;;;;;0.60;0.20;;;;;;;13.97;46.09;98487.56;4423966;32;20072;-73
2021/12/09 00:42:57;;;;;;;1.33;0.22;;;;;;;14.36;45.71;98489.59;4424555;32;20103;-73
2021/12/09 00:45:24;;;;;;;1.12;0.30;;;;;;;14.40;46.00;98501.41;4426235;32;20058;-73
2021/12/09 00:47:51;;;;;;;0.28;0.13;;;;;;;14.38;46.15;98499.09;4425133;32;20038;-73
2021/12/09 00:50:18;;;;;;;0.55;0.30;;;;;;;14.38;46.17;98501.94;4426281;32;20160;-73
2021/12/09 00:52:45;;;;;;;1.35;0.20;;;;;;;14.41;45.96;98502.94;4414700;32;20030;-73
2021/12/09 00:55:11;;;;;;;4.32;0.22;;;;;;;14.47;45.69;98506.53;4414377;32;20485;-73
2021/12/09 00:57:38;;;;;;;0.28;0.15;;;;;;;14.49;45.83;98503.97;4415584;32;20146;-73
2021/12/09 01:00:09;;;;;;;0.68;0.20;;;;;;;14.70;45.95;98517.25;4414140;32;20446;-74
2021/12/09 01:02:35;;;;;;;0.28;0.10;;;;;;;14.75;45.96;98529.84;4415851;32;20387;-73
2021/12/09 01:05:01;;;;;;;1.23;0.20;;;;;;;14.63;45.77;98523.47;4414247;32;20205;-73
2021/12/09 01:11:06;;;;;;;0.85;0.30;;;;;;;14.63;45.97;98528.38;4413821;32;20751;-73
2021/12/09 01:42:44;;;;;;;1.85;0.43;;;;;;;14.70;45.82;98579.53;4412780;32;20088;-70
2021/12/09 01:45:10;;;;;;;5.40;0.73;;;;;;;14.03;47.55;98590.13;4413865;32;20077;-70
2021/12/09 01:47:36;;;;;;;1.77;0.47;;;;;;;14.53;46.56;98586.53;4410852;32;20042;-70
2021/12/09 01:50:03;;;;;;;2.65;0.50;;;;;;;14.60;46.46;98592.44;4414104;32;20850;-70
2021/12/09 01:52:29;;;;;;;5.50;0.47;;;;;;;14.74;46.31;98582.91;4411881;32;20530;-70
2021/12/09 01:54:54;;;;;;;3.60;0.65;;;;;;;14.79;45.99;98593.41;4413085;32;20093;-70
2021/12/09 01:57:20;;;;;;;5.40;0.82;;;;;;;14.48;46.27;98581.66;4413858;32;20076;-70
2021/12/09 01:59:48;;;;;;;3.50;0.77;;;;;;;14.80;46.21;98591.37;4412939;32;20038;-70
2021/12/09 02:02:13;;;;;;;10.20;0.90;;;;;;;14.94;46.10;98588.22;4411796;32;20103;-70
2021/12/09 02:04:39;;;;;;;4.03;0.75;;;;;;;14.85;46.13;98605.50;4408644;32;20734;-70
2021/12/09 02:07:05;;;;;;;7.80;0.80;;;;;;;14.78;46.20;98605.25;4413386;32;20027;-70
2021/12/09 02:09:31;;;;;;;7.43;1.30;;;;;;;14.86;46.20;98600.63;4414433;32;20366;-70
2021/12/09 02:11:57;;;;;;;3.22;0.70;;;;;;;15.01;46.08;98609.59;4412638;32;20073;-70
2021/12/09 02:14:22;;;;;;;8.32;0.80;;;;;;;14.81;46.41;98610.66;4417760;32;20084;-70
2021/12/09 02:16:48;;;;;;;4.78;0.70;;;;;;;14.79;46.38;98615.31;4415410;32;20081;-70
2021/12/09 02:19:14;;;;;;;6.00;0.60;;;;;;;14.64;46.57;98614.81;4414076;32;20107;-70
2021/12/09 02:21:42;;;;;;;11.55;1.05;;;;;;;14.82;46.33;98623.53;4412868;32;20045;-70
2021/12/09 02:24:10;;;;;;;11.48;1.50;;;;;;;14.96;46.21;98619.63;4414669;32;20216;-70
2021/12/09 02:26:39;;;;;;;3.30;0.57;;;;;;;15.09;46.35;98621.91;4412222;32;20144;-70
2021/12/09 02:29:07;;;;;;;8.98;1.37;;;;;;;15.07;46.27;98636.59;4411861;32;20164;-70
2021/12/09 02:31:33;;;;;;;7.05;1.00;;;;;;;15.24;46.17;98636.53;4413647;32;20436;-70
2021/12/09 02:34:00;;;;;;;9.15;1.10;;;;;;;15.09;46.38;98633.22;4413991;32;20150;-70
2021/12/09 02:36:26;;;;;;;8.07;1.35;;;;;;;15.11;45.74;98639.94;4414511;32;20061;-70
2021/12/09 02:38:53;;;;;;;10.88;1.45;;;;;;;15.14;45.94;98638.91;4413384;32;20423;-70
2021/12/09 02:41:24;;;;;;;10.43;1.58;;;;;;;15.28;45.86;98643.47;4414713;32;20085;-70
2021/12/09 02:43:56;;;;;;;6.62;1.50;;;;;;;15.34;45.73;98646.31;4415917;32;20034;-69
2021/12/09 02:46:24;;;;;;;8.85;1.45;;;;;;;15.18;46.24;98652.78;4414992;32;20678;-70
2021/12/09 02:48:50;;;;;;;6.53;1.35;;;;;;;15.19;46.04;98655.09;4411047;32;20070;-69
2021/12/09 02:51:17;;;;;;;10.80;1.20;;;;;;;14.90;46.46;98657.75;4414073;32;20077;-69
2021/12/09 02:53:42;;;;;;;6.20;1.48;;;;;;;14.89;46.48;98654.16;4413042;32;20057;-69
2021/12/09 02:56:09;;;;;;;17.02;1.45;;;;;;;14.99;46.54;98654.63;4414262;32;20076;-69
2021/12/09 02:58:36;;;;;;;14.90;1.30;;;;;;;15.07;46.55;98661.31;4413994;32;20337;-69
2021/12/09 03:03:49;;;;;;;8.48;1.20;;;;;;;15.13;46.41;98673.41;3984712;32;15021659;-69
2021/12/09 03:06:16;;;;;;;10.48;1.33;;;;;;;15.12;46.57;98669.03;4439803;32;20102;-69
2021/12/09 03:08:43;;;;;;;8.90;1.60;;;;;;;15.22;46.28;98679.56;4437246;32;20085;-69
2021/12/09 03:11:13;;;;;;;10.20;1.58;;;;;;;15.16;45.99;98675.22;4437120;32;20076;-69
2021/12/09 03:13:41;;;;;;;11.65;1.83;;;;;;;15.28;45.76;98688.81;4435739;32;20081;-69
2021/12/09 03:16:08;;;;;;;17.83;1.60;;;;;;;15.31;45.92;98687.03;4436184;32;20106;-69
2021/12/09 03:18:40;;;;;;;8.35;1.60;;;;;;;14.97;46.29;98686.31;4435536;32;20061;-69
2021/12/09 03:21:13;;;;;;;7.90;1.25;;;;;;;15.13;45.81;98684.75;4438011;32;20080;-69
2021/12/09 03:23:39;;;;;;;12.70;1.58;;;;;;;15.05;46.13;98690.16;4433339;32;20070;-69
2021/12/09 03:26:06;;;;;;;15.20;1.65;;;;;;;14.68;46.68;98686.88;4433664;32;20399;-69
2021/12/09 03:28:32;;;;;;;7.03;1.37;;;;;;;14.69;46.79;98691.25;4434781;32;20119;-69
2021/12/09 03:30:58;;;;;;;12.95;1.62;;;;;;;14.75;46.59;98697.66;4435889;32;20447;-69
2021/12/09 03:33:24;;;;;;;8.18;1.50;;;;;;;14.84;46.31;98700.25;4436961;32;20025;-69
2021/12/09 03:36:07;;;;;;;9.50;1.50;;;;;;;14.80;46.41;98696.13;4438855;32;20068;-69
2021/12/09 03:38:34;;;;;;;8.73;2.08;;;;;;;15.11;46.15;98707.16;4436395;32;20499;-69
2021/12/09 03:41:00;;;;;;;10.45;1.90;;;;;;;15.01;46.74;98708.72;4432982;32;20050;-69
2021/12/09 03:43:26;;;;;;;10.93;2.08;;;;;;;14.75;46.45;98719.53;4433031;32;20428;-69
2021/12/09 03:45:55;;;;;;;17.12;1.98;;;;;;;14.72;46.70;98709.25;4437270;32;20099;-69
2021/12/09 03:48:22;;;;;;;14.48;1.67;;;;;;;14.71;47.22;98702.84;4431821;32;20026;-69
2021/12/09 03:50:49;;;;;;;9.20;1.83;;;;;;;14.74;47.26;98698.19;4436520;32;20037;-70
2021/12/09 03:53:15;;;;;;;12.07;1.65;;;;;;;14.71;47.19;98702.06;4432097;32;20073;-69
2021/12/09 03:55:40;;;;;;;11.73;2.20;;;;;;;14.74;47.10;98704.63;4438600;32;20395;-69
2021/12/09 03:58:07;;;;;;;16.90;2.10;;;;;;;14.55;47.72;98712.09;4436700;32;20037;-69
2021/12/09 04:00:33;;;;;;;6.55;1.45;;;;;;;14.77;47.31;98711.31;4435854;32;20061;-69
2021/12/09 04:02:59;;;;;;;12.27;1.70;;;;;;;14.75;47.23;98708.22;4432552;32;20414;-69
2021/12/09 04:05:25;;;;;;;10.93;1.35;;;;;;;14.36;47.85;98713.87;4433398;32;20055;-69
2021/12/09 04:07:51;;;;;;;10.75;1.48;;;;;;;14.74;47.02;98718.00;4435619;32;20081;-69
2021/12/09 04:10:17;;;;;;;12.68;1.48;;;;;;;14.63;47.19;98721.59;4435021;32;20042;-69
2021/12/09 04:12:43;;;;;;;7.37;1.40;;;;;;;14.72;46.99;98727.00;4435870;32;20065;-69
2021/12/09 04:15:10;;;;;;;13.60;1.27;;;;;;;14.75;46.82;98736.53;4424413;32;20486;-69
2021/12/09 04:17:36;;;;;;;17.80;2.05;;;;;;;14.70;47.22;98737.31;4426401;32;20065;-69
2021/12/09 04:20:06;;;;;;;16.67;1.48;;;;;;;14.76;46.94;98743.75;4424301;32;20034;-69
2021/12/09 04:22:32;;;;;;;14.95;1.48;;;;;;;14.78;47.05;98738.34;4423170;32;20096;-69
2021/12/09 04:24:58;;;;;;;14.95;1.60;;;;;;;14.83;46.97;98749.69;4425356;32;20709;-69
2021/12/09 04:27:25;;;;;;;9.27;1.27;;;;;;;14.58;48.06;98755.59;4425193;32;20085;-69
2021/12/09 04:29:52;;;;;;;7.18;1.30;;;;;;;13.97;49.67;98767.50;4424070;32;20034;-70
2021/12/09 04:32:19;;;;;;;7.07;1.12;;;;;;;13.79;49.91;98772.84;4423261;32;20063;-69
2021/12/09 04:34:46;;;;;;;7.37;1.10;;;;;;;14.25;48.66;98767.63;4425178;32;20029;-69
2021/12/09 04:37:12;;;;;;;11.75;1.50;;;;;;;14.33;48.44;98777.12;4424943;32;20067;-70
2021/12/09 04:39:38;;;;;;;9.43;0.85;;;;;;;14.08;48.77;98773.19;4421498;32;20384;-69
2021/12/09 04:42:05;;;;;;;6.57;1.15;;;;;;;14.07;48.71;98788.63;4426828;32;20148;-69
2021/12/09 04:44:31;;;;;;;4.90;0.98;;;;;;;14.37;48.48;98785.38;4423247;32;20053;-69
2021/12/09 04:47:00;;;;;;;8.32;1.00;;;;;;;13.74;49.88;98802.63;4424407;32;20077;-70
2021/12/09 04:49:27;;;;;;;6.55;1.10;;;;;;;14.50;48.58;98802.66;4425368;32;20053;-70
2021/12/09 04:51:53;;;;;;;10.10;1.10;;;;;;;14.16;49.39;98804.59;4427247;32;20384;-69
2021/12/09 04:54:18;;;;;;;7.28;1.17;;;;;;;14.30;48.93;98814.19;4426103;32;20099;-70
2021/12/09 04:56:45;;;;;;;8.00;0.65;;;;;;;14.62;48.20;98815.53;4426588;32;20111;-70
2021/12/09 04:59:10;;;;;;;6.07;0.77;;;;;;;14.84;47.96;98807.06;4427021;32;20026;-69
2021/12/09 05:01:36;;;;;;;7.10;0.80;;;;;;;14.66;47.90;98816.06;4422783;32;20138;-70
2021/12/09 05:04:03;;;;;;;5.40;0.80;;;;;;;14.57;48.34;98819.16;4423059;32;20081;-69
2021/12/09 05:06:29;;;;;;;6.35;0.90;;;;;;;14.75;47.92;98829.97;4424320;32;20057;-69
2021/12/09 05:08:57;;;;;;;6.90;1.02;;;;;;;14.88;47.27;98830.25;4425256;32;20494;-69
2021/12/09 05:14:04;;;;;;;5.75;0.80;;;;;;;15.54;46.58;98841.56;3982080;32;15024210;-69
2021/12/09 05:16:31;;;;;;;4.68;0.70;;;;;;;15.54;46.58;98841.56;4435724;32;20037;-69
2021/12/09 05:18:58;;;;;;;5.25;0.47;;;;;;;14.47;48.40;98844.06;4438503;32;20157;-69
2021/12/09 05:21:28;;;;;;;5.95;0.60;;;;;;;14.68;48.04;98842.56;4437150;32;20050;-69
2021/12/09 05:23:55;;;;;;;4.30;0.60;;;;;;;14.69;47.37;98851.81;4433325;32;20034;-69
2021/12/09 05:26:25;;;;;;;2.92;0.37;;;;;;;14.67;47.02;98860.81;4438232;32;21521;-69
2021/12/09 05:28:55;;;;;;;1.30;0.20;;;;;;;14.32;46.97;98854.03;4438429;32;20537;-69
2021/12/09 05:34:08;;;;;;;2.40;0.37;;;;;;;14.60;46.75;98846.44;4432594;32;20061;-69
2021/12/09 05:36:35;;;;;;;1.30;0.28;;;;;;;14.31;47.16;98841.97;4437588;32;20068;-69
2021/12/09 05:39:03;;;;;;;3.50;0.35;;;;;;;14.64;46.38;98844.13;4435710;32;20152;-69
2021/12/09 05:41:28;;;;;;;3.33;0.20;;;;;;;14.75;46.33;98844.91;4436809;32;20102;-69
2021/12/09 05:43:54;;;;;;;2.22;0.32;;;;;;;14.74;46.07;98851.84;4438428;32;20441;-69
2021/12/09 05:46:22;;;;;;;2.90;0.37;;;;;;;14.90;46.14;98851.09;4436156;32;20080;-69
2021/12/09 05:48:49;;;;;;;4.43;0.40;;;;;;;15.22;45.60;98852.38;4434030;32;20157;-69
2021/12/09 05:51:16;;;;;;;6.05;0.80;;;;;;;15.58;45.45;98859.88;4436945;32;20478;-69
2021/12/09 05:53:42;;;;;;;2.12;0.45;;;;;;;15.63;44.94;98844.13;4434505;32;20052;-70
2021/12/09 05:56:07;;;;;;;3.53;0.40;;;;;;;15.69;44.90;98842.06;4434005;32;20029;-69
2021/12/09 05:58:33;;;;;;;11.45;0.75;;;;;;;15.45;45.43;98839.00;4437074;32;20125;-69
2021/12/09 06:00:59;;;;;;;3.85;1.27;;;;;;;15.15;46.08;98840.81;4434658;32;20099;-69
2021/12/09 06:03:25;;;;;;;7.87;1.45;;;;;;;15.04;46.47;98838.72;4436466;32;20044;-69
2021/12/09 06:05:51;;;;;;;12.25;1.90;;;;;;;15.56;45.65;98844.69;4433839;32;20069;-69
2021/12/09 06:08:19;;;;;;;12.85;1.83;;;;;;;15.45;45.73;98847.50;4433748;32;20073;-69
2021/12/09 06:10:45;;;;;;;10.75;1.67;;;;;;;15.50;45.80;98855.25;4436349;32;20427;-69
2021/12/09 06:13:12;;;;;;;17.50;1.62;;;;;;;15.24;46.34;98852.66;4436858;32;20425;-69
2021/12/09 06:15:37;;;;;;;13.95;2.37;;;;;;;15.11;46.45;98849.56;4434870;32;20201;-69
2021/12/09 06:18:03;;;;;;;16.92;2.33;;;;;;;15.02;46.47;98847.00;4435883;32;20081;-69
2021/12/09 06:20:30;;;;;;;20.55;1.95;;;;;;;15.22;46.14;98845.97;4434745;32;20056;-69
2021/12/09 06:22:55;;;;;;;12.63;1.58;;;;;;;15.01;46.40;98839.78;4435936;32;20076;-69
2021/12/09 06:25:22;;;;;;;8.75;1.50;;;;;;;14.90;46.53;98839.78;4423095;32;20038;-69
2021/12/09 06:27:49;;;;;;;18.42;1.92;;;;;;;15.12;46.26;98841.81;4427263;32;20068;-69
2021/12/09 06:30:18;;;;;;;20.50;2.50;;;;;;;15.25;46.18;98842.09;4425395;32;20140;-69
2021/12/09 06:32:43;;;;;;;14.90;2.15;;;;;;;15.07;46.41;98853.94;4425028;32;20074;-69
2021/12/09 06:35:10;;;;;;;10.30;1.67;;;;;;;14.31;47.95;98870.25;4424630;32;20427;-69
2021/12/09 06:37:39;;;;;;;13.15;2.30;;;;;;;14.32;48.28;98859.69;4425568;32;20064;-69
2021/12/09 06:40:09;;;;;;;22.35;2.30;;;;;;;14.68;47.41;98861.62;4422969;32;20042;-69
2021/12/09 06:42:35;;;;;;;11.32;2.60;;;;;;;14.92;46.98;98851.38;4424992;32;20060;-69
2021/12/09 06:45:03;;;;;;;17.98;2.25;;;;;;;14.50;47.87;98867.75;4426438;32;20033;-70
2021/12/09 06:47:29;;;;;;;17.33;2.15;;;;;;;15.02;46.89;98863.22;4423931;32;20026;-69
2021/12/09 06:49:57;;;;;;;19.27;3.15;;;;;;;14.45;47.87;98883.41;4425370;32;20068;-69
2021/12/09 06:52:22;;;;;;;18.50;1.55;;;;;;;14.56;47.69;98882.69;4421551;32;20018;-69
2021/12/09 06:54:48;;;;;;;14.80;2.05;;;;;;;14.69;47.39;98891.47;4425122;32;20126;-69
2021/12/09 06:57:14;;;;;;;10.52;2.10;;;;;;;14.87;46.92;98885.31;4421792;32;20052;-69
2021/12/09 06:59:40;;;;;;;12.65;2.28;;;;;;;14.97;46.49;98901.56;4423160;32;20098;-69
2021/12/09 07:02:05;;;;;;;17.73;1.70;;;;;;;14.74;46.87;98916.19;4422571;32;20436;-69
2021/12/09 07:04:32;;;;;;;9.70;1.42;;;;;;;15.04;46.17;98911.63;4426879;32;20063;-69
2021/12/09 07:06:57;;;;;;;23.20;2.47;;;;;;;15.31;45.95;98916.56;4426050;32;20534;-69
2021/12/09 07:09:28;;;;;;;11.30;1.58;;;;;;;14.76;47.35;98927.78;4422253;32;20109;-69
2021/12/09 07:11:54;;;;;;;21.55;2.10;;;;;;;14.76;47.28;98917.22;4424144;32;20099;-69
2021/12/09 07:14:20;;;;;;;17.25;2.45;;;;;;;15.21;46.34;98927.34;4424503;32;20150;-69
2021/12/09 07:16:46;;;;;;;13.95;1.80;;;;;;;14.93;47.05;98942.75;4425335;32;20073;-69
2021/12/09 07:19:12;;;;;;;16.10;1.92;;;;;;;14.69;47.71;98936.75;4424391;32;20322;-69
2021/12/09 07:21:38;;;;;;;18.87;2.90;;;;;;;14.64;48.04;98938.31;4426059;32;20033;-69
2021/12/09 07:24:04;;;;;;;11.23;1.75;;;;;;;14.39;48.48;98949.78;4422436;32;20068;-69
2021/12/09 07:26:30;;;;;;;22.05;2.70;;;;;;;14.29;48.82;98948.47;4421043;32;20027;-69
2021/12/09 07:28:56;;;;;;;16.08;2.12;;;;;;;14.44;48.56;98949.81;4422808;32;20069;-69
2021/12/09 07:31:24;;;;;;;21.02;2.90;;;;;;;14.37;48.46;98958.00;4425230;32;20029;-69
2021/12/09 07:33:51;;;;;;;16.80;2.10;;;;;;;14.79;47.62;98952.25;4424197;32;20981;-69
2021/12/09 07:36:16;;;;;;;14.52;1.60;;;;;;;15.27;46.46;98956.47;4424477;32;20073;-69
2021/12/09 07:38:45;;;;;;;17.75;2.20;;;;;;;14.88;47.17;98958.44;4422136;32;20099;-69
2021/12/09 07:41:13;;;;;;;20.35;2.17;;;;;;;15.05;46.57;98967.78;4421953;32;20469;-69
2021/12/09 07:43:39;;;;;;;18.17;2.20;;;;;;;14.80;47.57;98970.78;4420790;32;20406;-70
2021/12/09 07:46:05;;;;;;;10.23;1.55;;;;;;;15.29;46.28;98964.47;4418317;32;20160;-69
2021/12/09 07:48:31;;;;;;;18.33;2.35;;;;;;;15.01;46.31;98970.09;4418552;32;20085;-69
2021/12/09 07:50:57;;;;;;;18.40;1.95;;;;;;;15.33;45.94;98959.31;4418042;32;20065;-69
2021/12/09 07:53:24;;;;;;;20.58;2.45;;;;;;;14.80;47.09;98965.91;4411011;32;20061;-69
2021/12/09 07:55:51;;;;;;;21.80;2.42;;;;;;;14.97;46.89;98966.72;4412785;32;20066;-69
2021/12/09 07:58:17;;;;;;;49.78;3.25;;;;;;;15.07;46.38;98975.75;4418801;32;20077;-69
2021/12/09 08:00:44;;;;;;;12.65;1.95;;;;;;;15.38;45.69;98972.75;4416038;32;20102;-70
2021/12/09 08:03:10;;;;;;;14.45;2.05;;;;;;;15.51;45.56;98981.50;4413179;32;20191;-69
2021/12/09 08:05:39;;;;;;;18.92;2.92;;;;;;;15.11;46.45;98981.94;4414030;32;20554;-71
2021/12/09 08:08:07;;;;;;;23.48;2.70;;;;;;;15.25;46.33;98981.72;4415575;32;20081;-70
2021/12/09 08:10:33;;;;;;;11.52;2.15;;;;;;;15.58;45.12;98978.94;4413132;32;20097;-70
2021/12/09 08:13:00;;;;;;;24.25;2.60;;;;;;;15.39;45.67;98980.75;4404348;32;20545;-71
2021/12/09 08:15:29;;;;;;;20.02;2.33;;;;;;;15.16;46.17;98984.03;4411297;32;20134;-71
2021/12/09 08:18:04;;;;;;;20.55;2.55;;;;;;;15.71;45.36;98978.44;4410328;32;20108;-71
2021/12/09 08:20:32;;;;;;;20.55;2.92;;;;;;;15.36;45.53;98983.78;4409171;32;20544;-72
2021/12/09 08:22:58;;;;;;;11.48;2.12;;;;;;;15.66;45.20;98982.03;4412113;32;20174;-71
2021/12/09 08:25:24;;;;;;;19.33;2.20;;;;;;;15.53;45.21;98991.03;4408980;32;20461;-71
2021/12/09 08:27:51;;;;;;;19.95;2.62;;;;;;;15.59;45.00;98991.81;4411775;32;20109;-71
2021/12/09 08:30:21;;;;;;;17.45;3.05;;;;;;;15.69;44.60;98992.34;4403666;32;20037;-71
2021/12/09 08:32:47;;;;;;;14.80;2.50;;;;;;;15.61;44.75;98979.97;4414562;32;20085;-71
2021/12/09 08:35:15;;;;;;;19.73;2.62;;;;;;;15.79;44.53;99000.09;4407789;32;20042;-71
2021/12/09 08:37:45;;;;;;;22.58;2.78;;;;;;;15.58;44.80;99012.19;4408771;32;20142;-71
2021/12/09 08:40:12;;;;;;;19.42;2.25;;;;;;;16.04;43.91;99001.09;4412506;32;20566;-72
2021/12/09 08:42:40;;;;;;;25.37;3.15;;;;;;;15.83;44.02;99009.09;4409291;32;20987;-71
2021/12/09 08:45:10;;;;;;;11.05;2.05;;;;;;;16.13;43.78;99012.19;4414095;32;20121;-71
2021/12/09 08:47:39;;;;;;;20.83;2.72;;;;;;;16.33;43.35;99011.13;4409579;32;20077;-71
2021/12/09 08:50:09;;;;;;;20.25;2.70;;;;;;;16.63;42.49;99018.53;4412535;32;20083;-71
2021/12/09 08:52:35;;;;;;;18.23;2.83;;;;;;;16.75;42.40;99010.78;4414789;32;20130;-70
2021/12/09 08:55:02;;;;;;;17.50;3.80;;;;;;;16.85;42.15;99009.19;4413896;32;20073;-71
2021/12/09 08:57:31;;;;;;;19.40;4.10;;;;;;;16.83;42.32;98997.56;4408868;32;21193;-70
2021/12/09 08:59:56;;;;;;;21.05;5.12;;;;;;;16.61;42.67;99012.63;4414550;32;20549;-70
2021/12/09 09:02:23;;;;;;;22.08;5.10;;;;;;;16.27;43.51;99005.47;4411051;32;20125;-71
2021/12/09 09:04:50;;;;;;;15.32;4.55;;;;;;;16.45;43.52;99002.09;4411565;32;20057;-70
2021/12/09 09:07:17;;;;;;;22.45;4.68;;;;;;;16.52;43.06;98995.87;4412499;32;20111;-71
2021/12/09 09:09:43;;;;;;;22.05;3.58;;;;;;;16.56;43.30;98989.91;4408590;32;20104;-71
2021/12/09 09:12:11;;;;;;;21.08;3.97;;;;;;;15.89;44.12;98983.56;4415837;32;20061;-71
2021/12/09 09:14:38;;;;;;;18.05;3.40;;;;;;;15.88;44.54;98982.81;4412994;32;20105;-71
2021/12/09 09:17:04;;;;;;;12.57;3.15;;;;;;;15.51;45.16;98973.00;4414231;32;20026;-70
2021/12/09 09:19:31;;;;;;;14.32;2.90;;;;;;;15.37;45.65;98982.56;4411156;32;20211;-70
2021/12/09 09:21:57;;;;;;;9.38;2.47;;;;;;;15.43;45.19;98971.97;4408702;32;20061;-70
2021/12/09 09:24:24;;;;;;;18.23;2.92;;;;;;;15.36;45.01;98975.28;4410152;32;20073;-71
2021/12/09 09:26:50;;;;;;;15.82;2.37;;;;;;;15.68;45.14;98976.62;4413463;32;20070;-70
2021/12/09 09:29:16;;;;;;;11.95;1.90;;;;;;;15.76;44.29;98986.16;4412594;32;21534;-71
2021/12/09 09:31:43;;;;;;;11.63;2.05;;;;;;;16.09;43.99;98994.66;4411466;32;20084;-71
2021/12/09 09:34:11;;;;;;;9.77;2.00;;;;;;;15.77;44.35;99001.87;4412203;32;20038;-71
2021/12/09 09:36:44;;;;;;;18.42;2.75;;;;;;;16.22;43.77;99003.41;4414540;32;20883;-70
2021/12/09 09:39:21;;;;;;;11.88;2.03;;;;;;;16.49;43.14;99008.28;4408974;32;20073;-70
2021/12/09 09:42:00;;;;;;;10.57;2.58;;;;;;;16.79;42.63;99005.59;4413892;32;20097;-71
2021/12/09 09:44:33;;;;;;;13.10;3.87;;;;;;;16.86;42.61;99008.66;4413343;32;20056;-71
2021/12/09 09:47:02;;;;;;;19.17;4.87;;;;;;;16.78;42.61;99010.47;4413451;32;20045;-71
2021/12/09 09:49:30;;;;;;;14.38;4.43;;;;;;;17.17;42.20;99013.94;4412823;32;20097;-72
2021/12/09 09:51:57;;;;;;;17.65;4.47;;;;;;;16.65;42.80;99021.62;4414784;32;20099;-71
2021/12/09 09:54:25;;;;;;;18.35;5.25;;;;;;;16.67;42.97;99026.81;4412805;32;20068;-71
2021/12/09 09:56:53;;;;;;;22.67;5.95;;;;;;;16.66;42.98;99031.69;4415470;32;20869;-71
2021/12/09 09:59:20;;;;;;;19.65;5.70;;;;;;;16.67;42.85;99038.94;4413434;32;20077;-70
2021/12/09 10:01:52;;;;;;;34.22;6.18;;;;;;;16.56;43.10;99050.31;4415680;32;20141;-71
2021/12/09 10:04:26;;;;;;;21.17;6.12;;;;;;;17.21;42.27;99059.88;4408215;32;20508;-70
2021/12/09 10:06:53;;;;;;;19.12;6.40;;;;;;;16.94;42.39;99051.50;4413570;32;20075;-70
2021/12/09 10:09:20;;;;;;;16.17;5.20;;;;;;;16.94;41.99;99051.50;4414333;32;20423;-72
2021/12/09 10:11:48;;;;;;;23.80;5.20;;;;;;;17.00;42.06;99053.00;4412469;32;20425;-71
2021/12/09 10:14:18;;;;;;;23.80;5.90;;;;;;;17.02;41.82;99044.75;4414579;32;21188;-70
2021/12/09 10:17:00;;;;;;;20.77;5.90;;;;;;;17.29;41.58;99055.22;4415891;32;20491;-71
2021/12/09 10:19:27;;;;;;;22.73;6.20;;;;;;;17.47;41.40;99054.63;4415075;32;20154;-71
2021/12/09 10:22:08;;;;;;;17.85;5.18;;;;;;;17.22;41.52;99052.94;4418446;32;20034;-71
2021/12/09 10:24:34;;;;;;;20.75;4.80;;;;;;;17.80;40.51;99065.75;4414376;32;20492;-71
2021/12/09 10:27:00;;;;;;;19.92;4.50;;;;;;;17.40;41.05;99062.91;4415285;32;20104;-71
2021/12/09 10:29:32;;;;;;;26.92;5.10;;;;;;;17.43;40.88;99053.34;4415308;32;20042;-71
2021/12/09 10:32:03;;;;;;;17.05;4.95;;;;;;;17.29;40.81;99052.38;4408488;32;20499;-71
2021/12/09 10:42:49;;;;;;;17.02;4.15;;;;;;;18.42;38.73;99057.50;3987462;31;15016534;-72
2021/12/09 10:50:46;;;;;;;15.70;5.75;;;;;;;18.66;38.18;99060.38;3966833;32;15026443;-73
2021/12/09 10:55:51;;;;;;;19.12;6.20;;;;;;;18.37;38.43;99059.12;3971739;32;15025132;-72
2021/12/09 10:58:25;;;;;;;18.00;6.15;;;;;;;18.37;38.43;99059.12;4420409;32;20064;-73
2021/12/09 11:16:42;;;;;;;16.52;4.50;;;;;;;19.38;35.77;99048.87;3988306;31;15017764;-71
2021/12/09 11:19:13;;;;;;;15.23;4.20;;;;;;;18.56;36.90;99047.81;4450357;32;20155;-72
2021/12/09 11:21:44;;;;;;;18.30;5.07;;;;;;;18.97;36.60;99051.22;4451722;32;20084;-72
2021/12/09 11:24:17;;;;;;;22.50;5.55;;;;;;;18.91;36.81;99036.25;4451472;32;20592;-71
2021/12/09 11:34:53;;;;;;;7.22;3.25;;;;;;;18.80;36.30;99016.44;3973294;32;15021577;-71
2021/12/09 11:42:50;;;;;;;20.42;4.85;;;;;;;18.98;36.53;99030.72;3968807;32;15021335;-71
2021/12/09 11:45:30;;;;;;;20.88;3.90;;;;;;;18.98;36.53;99030.72;4415668;32;20083;-72
2021/12/09 11:47:59;;;;;;;;;;;;;;;18.76;36.47;99025.28;4420143;32;20436;-70
2021/12/09 11:50:31;;;;;;;15.52;3.00;;;;;;;19.03;35.58;99031.97;4416466;32;20423;-72
2021/12/09 11:53:00;;;;;;;14.90;3.25;;;;;;;18.88;35.76;99025.94;4416914;32;20164;-72
2021/12/09 11:55:34;;;;;;;18.75;2.95;;;;;;;19.10;35.46;99025.66;4417979;32;20141;-72
2021/12/09 11:58:06;;;;;;;21.60;3.47;;;;;;;18.98;35.41;99027.09;4417576;32;20118;-72
2021/12/09 12:07:04;;;;;;;14.13;4.78;;;;;;;19.47;34.94;99011.41;3973957;32;15022930;-72
2021/12/09 12:18:30;;;;;;;11.95;3.03;;;;;;;19.02;35.37;98996.97;3989000;31;15017116;-73
2021/12/09 12:27:17;;;;;;;10.90;2.42;;;;;;;18.72;35.38;98990.59;3965833;32;15022644;-73
2021/12/09 12:32:56;;;;;;;15.88;2.45;;;;;;;18.84;35.41;98982.72;3974820;32;15021469;-72
2021/12/09 12:41:09;;;;;;;10.02;2.00;;;;;;;20.59;31.80;98975.47;3965264;31;15016494;-72
2021/12/09 12:43:45;;;;;;;8.75;1.90;;;;;;;20.59;31.80;98975.47;4411968;32;20095;-73
2021/12/09 12:46:39;;;;;;;13.45;2.55;;;;;;;20.62;31.74;98967.91;4412066;32;20072;-74
2021/12/09 12:49:18;;;;;;;14.10;1.95;;;;;;;20.67;31.55;98967.78;4410749;32;20053;-73
2021/12/09 12:52:09;;;;;;;14.38;4.62;;;;;;;21.17;30.86;98972.50;4412408;32;20041;-73
2021/12/09 13:08:28;;;;;;;10.73;1.90;;;;;;;20.47;31.63;98951.31;3974516;32;15021518;-72
2021/12/09 13:13:45;;;;;;;13.82;2.10;;;;;;;20.28;32.56;98942.06;3968507;32;15023599;-72
2021/12/09 13:21:55;;;;;;;15.55;2.20;;;;;;;20.40;32.40;98923.38;3942147;32;15722648;-70
2021/12/09 13:32:53;;;;;;;11.60;2.03;;;;;;;21.08;30.85;98905.06;3961695;32;15021441;-72
2021/12/09 13:54:28;;;;;;;9.23;1.70;;;;;;;22.91;27.65;98880.91;3949002;32;15023421;-74
2021/12/09 13:59:34;;;;;;;10.25;1.60;;;;;;;20.75;31.35;98862.91;3934265;32;15723550;-74
2021/12/09 14:02:12;;;;;;;9.95;2.45;;;;;;;20.75;31.35;98862.91;4409241;32;20085;-74
2021/12/09 14:04:38;;;;;;;14.27;3.25;;;;;;;19.77;32.71;98852.94;4412011;32;20158;-74
2021/12/09 14:09:45;;;;;;;10.10;3.85;;;;;;;18.37;34.65;98845.53;3973066;32;15021342;-73
2021/12/09 14:12:11;;;;;;;8.43;2.87;;;;;;;18.37;34.65;98845.53;4425819;32;20108;-73
2021/12/09 14:14:51;;;;;;;11.60;2.35;;;;;;;18.55;33.92;98836.22;4419382;32;20741;-71
2021/12/09 14:17:23;;;;;;;9.15;2.03;;;;;;;18.92;32.89;98832.56;4424872;32;20085;-72
2021/12/09 14:20:06;;;;;;;9.68;1.95;;;;;;;19.29;32.19;98821.88;4422022;32;20110;-72
2021/12/09 14:25:15;;;;;;;15.18;2.47;;;;;;;21.45;29.42;98813.13;3976556;31;15016782;-73